sensor_id;sensor_type;location;lat;lon;timestamp;temperature;humidity
12853;DHT22;6495;51.808;7.478;2022-07-23T00:01:56;18.60;99.90
12853;DHT22;6495;51.808;7.478;2022-07-23T00:04:24;18.60;99.90
12853;DHT22;6495;51.808;7.478;2022-07-23T00:06:52;18.60;99.90
12853;DHT22;6495;51.808;7.478;2022-07-23T00:09:20;18.60;99.90
12853;DHT22;6495;51.808;7.478;2022-07-23T00:11:48;18.60;99.90
12853;DHT22;6495;51.808;7.478;2022-07-23T00:14:16;18.60;99.90
12853;DHT22;6495;51.808;7.478;2022-07-23T00:16:46;18.60;99.90
12853;DHT22;6495;51.808;7.478;2022-07-23T00:19:14;18.60;99.90
12853;DHT22;6495;51.808;7.478;2022-07-23T00:21:42;18.60;99.90
12853;DHT22;6495;51.808;7.478;2022-07-23T00:24:11;18.60;99.90
12853;DHT22;6495;51.808;7.478;2022-07-23T00:26:39;18.50;99.90
12853;DHT22;6495;51.808;7.478;2022-07-23T00:29:07;18.50;99.90
12853;DHT22;6495;51.808;7.478;2022-07-23T00:31:35;18.50;99.90
12853;DHT22;6495;51.808;7.478;2022-07-23T00:34:04;18.40;99.90
12853;DHT22;6495;51.808;7.478;2022-07-23T00:36:32;18.40;99.90
12853;DHT22;6495;51.808;7.478;2022-07-23T00:39:00;18.40;99.90
12853;DHT22;6495;51.808;7.478;2022-07-23T00:41:30;18.40;99.90
12853;DHT22;6495;51.808;7.478;2022-07-23T00:44:16;18.30;99.90
12853;DHT22;6495;51.808;7.478;2022-07-23T00:46:46;18.30;99.90
12853;DHT22;6495;51.808;7.478;2022-07-23T00:49:17;18.30;99.90
12853;DHT22;6495;51.808;7.478;2022-07-23T00:51:45;18.20;99.90
12853;DHT22;6495;51.808;7.478;2022-07-23T00:54:15;18.20;99.90
12853;DHT22;6495;51.808;7.478;2022-07-23T00:56:45;18.10;99.90
12853;DHT22;6495;51.808;7.478;2022-07-23T00:59:14;18.10;99.90
12853;DHT22;6495;51.808;7.478;2022-07-23T01:01:42;18.00;99.90
12853;DHT22;6495;51.808;7.478;2022-07-23T01:04:13;17.90;99.90
12853;DHT22;6495;51.808;7.478;2022-07-23T01:06:45;17.90;99.90
12853;DHT22;6495;51.808;7.478;2022-07-23T01:09:13;17.90;99.90
12853;DHT22;6495;51.808;7.478;2022-07-23T01:11:42;17.80;99.90
12853;DHT22;6495;51.808;7.478;2022-07-23T01:14:11;17.80;99.90
12853;DHT22;6495;51.808;7.478;2022-07-23T01:16:42;17.80;99.90
12853;DHT22;6495;51.808;7.478;2022-07-23T01:19:12;17.80;99.90
12853;DHT22;6495;51.808;7.478;2022-07-23T01:21:43;17.80;99.90
12853;DHT22;6495;51.808;7.478;2022-07-23T01:24:15;17.80;99.90
12853;DHT22;6495;51.808;7.478;2022-07-23T01:26:47;17.80;99.90
12853;DHT22;6495;51.808;7.478;2022-07-23T01:29:16;17.80;99.90
12853;DHT22;6495;51.808;7.478;2022-07-23T01:31:45;17.80;99.90
12853;DHT22;6495;51.808;7.478;2022-07-23T01:34:13;17.80;99.90
12853;DHT22;6495;51.808;7.478;2022-07-23T01:36:41;17.80;99.90
12853;DHT22;6495;51.808;7.478;2022-07-23T01:39:09;17.80;99.90
12853;DHT22;6495;51.808;7.478;2022-07-23T01:41:41;17.80;99.90
12853;DHT22;6495;51.808;7.478;2022-07-23T01:44:13;17.80;99.90
12853;DHT22;6495;51.808;7.478;2022-07-23T01:46:42;17.70;99.90
12853;DHT22;6495;51.808;7.478;2022-07-23T01:49:10;17.70;99.90
12853;DHT22;6495;51.808;7.478;2022-07-23T01:51:38;17.70;99.90
12853;DHT22;6495;51.808;7.478;2022-07-23T01:54:26;17.70;99.90
12853;DHT22;6495;51.808;7.478;2022-07-23T01:56:56;17.80;99.90
12853;DHT22;6495;51.808;7.478;2022-07-23T01:59:24;17.80;99.90
12853;DHT22;6495;51.808;7.478;2022-07-23T02:01:53;17.80;99.90
12853;DHT22;6495;51.808;7.478;2022-07-23T02:04:23;17.80;99.90
12853;DHT22;6495;51.808;7.478;2022-07-23T02:06:52;17.80;99.90
12853;DHT22;6495;51.808;7.478;2022-07-23T02:09:20;17.80;99.90
12853;DHT22;6495;51.808;7.478;2022-07-23T02:11:49;17.80;99.90
12853;DHT22;6495;51.808;7.478;2022-07-23T02:14:18;17.80;99.90
12853;DHT22;6495;51.808;7.478;2022-07-23T02:16:46;17.80;99.90
12853;DHT22;6495;51.808;7.478;2022-07-23T02:19:15;17.70;99.90
12853;DHT22;6495;51.808;7.478;2022-07-23T02:21:43;17.70;99.90
12853;DHT22;6495;51.808;7.478;2022-07-23T02:24:10;17.70;99.90
12853;DHT22;6495;51.808;7.478;2022-07-23T02:26:38;17.70;99.90
12853;DHT22;6495;51.808;7.478;2022-07-23T02:29:06;17.70;99.90
12853;DHT22;6495;51.808;7.478;2022-07-23T02:31:36;17.70;99.90
12853;DHT22;6495;51.808;7.478;2022-07-23T02:34:05;17.60;99.90
12853;DHT22;6495;51.808;7.478;2022-07-23T02:36:33;17.60;99.90
12853;DHT22;6495;51.808;7.478;2022-07-23T02:39:01;17.60;99.90
12853;DHT22;6495;51.808;7.478;2022-07-23T02:41:30;17.60;99.90
12853;DHT22;6495;51.808;7.478;2022-07-23T02:43:58;17.70;99.90
12853;DHT22;6495;51.808;7.478;2022-07-23T02:46:26;17.60;99.90
12853;DHT22;6495;51.808;7.478;2022-07-23T02:48:55;17.60;99.90
12853;DHT22;6495;51.808;7.478;2022-07-23T02:51:33;17.60;99.90
12853;DHT22;6495;51.808;7.478;2022-07-23T02:54:01;17.60;99.90
12853;DHT22;6495;51.808;7.478;2022-07-23T02:56:29;17.60;99.90
12853;DHT22;6495;51.808;7.478;2022-07-23T02:58:57;17.50;99.90
12853;DHT22;6495;51.808;7.478;2022-07-23T03:01:25;17.50;99.90
12853;DHT22;6495;51.808;7.478;2022-07-23T03:03:55;17.60;99.90
12853;DHT22;6495;51.808;7.478;2022-07-23T03:06:23;17.50;99.90
12853;DHT22;6495;51.808;7.478;2022-07-23T03:08:51;17.50;99.90
12853;DHT22;6495;51.808;7.478;2022-07-23T03:11:19;17.50;99.90
12853;DHT22;6495;51.808;7.478;2022-07-23T03:13:47;17.50;99.90
12853;DHT22;6495;51.808;7.478;2022-07-23T03:16:15;17.40;99.90
12853;DHT22;6495;51.808;7.478;2022-07-23T03:18:43;17.40;99.90
12853;DHT22;6495;51.808;7.478;2022-07-23T03:21:13;17.30;99.90
12853;DHT22;6495;51.808;7.478;2022-07-23T03:23:41;17.30;99.90
12853;DHT22;6495;51.808;7.478;2022-07-23T03:26:21;17.30;99.90
12853;DHT22;6495;51.808;7.478;2022-07-23T03:28:51;17.30;99.90
12853;DHT22;6495;51.808;7.478;2022-07-23T03:31:19;17.20;99.90
12853;DHT22;6495;51.808;7.478;2022-07-23T03:33:48;17.20;99.90
12853;DHT22;6495;51.808;7.478;2022-07-23T03:36:17;17.10;99.90
12853;DHT22;6495;51.808;7.478;2022-07-23T03:38:47;17.10;99.90
12853;DHT22;6495;51.808;7.478;2022-07-23T03:41:17;17.00;99.90
12853;DHT22;6495;51.808;7.478;2022-07-23T03:43:45;17.00;99.90
12853;DHT22;6495;51.808;7.478;2022-07-23T03:46:13;17.00;99.90
12853;DHT22;6495;51.808;7.478;2022-07-23T03:48:42;17.00;99.90
12853;DHT22;6495;51.808;7.478;2022-07-23T03:51:10;17.00;99.90
12853;DHT22;6495;51.808;7.478;2022-07-23T03:53:39;16.90;99.90
12853;DHT22;6495;51.808;7.478;2022-07-23T03:56:07;16.90;99.90
12853;DHT22;6495;51.808;7.478;2022-07-23T03:58:35;17.00;99.90
12853;DHT22;6495;51.808;7.478;2022-07-23T04:01:03;16.90;99.90
12853;DHT22;6495;51.808;7.478;2022-07-23T04:03:31;17.00;99.90
12853;DHT22;6495;51.808;7.478;2022-07-23T04:05:59;17.00;99.90
12853;DHT22;6495;51.808;7.478;2022-07-23T04:08:27;17.00;99.90
12853;DHT22;6495;51.808;7.478;2022-07-23T04:10:56;17.00;99.90
12853;DHT22;6495;51.808;7.478;2022-07-23T04:13:25;17.00;99.90
12853;DHT22;6495;51.808;7.478;2022-07-23T04:15:53;17.00;99.90
12853;DHT22;6495;51.808;7.478;2022-07-23T04:18:21;17.00;99.90
12853;DHT22;6495;51.808;7.478;2022-07-23T04:20:50;17.00;99.90
12853;DHT22;6495;51.808;7.478;2022-07-23T04:23:25;17.00;99.90
12853;DHT22;6495;51.808;7.478;2022-07-23T04:25:53;17.00;99.90
12853;DHT22;6495;51.808;7.478;2022-07-23T04:28:22;17.00;99.90
12853;DHT22;6495;51.808;7.478;2022-07-23T04:30:50;16.90;99.90
12853;DHT22;6495;51.808;7.478;2022-07-23T04:33:18;16.90;99.90
12853;DHT22;6495;51.808;7.478;2022-07-23T04:35:46;16.90;99.90
12853;DHT22;6495;51.808;7.478;2022-07-23T04:38:14;16.90;99.90
12853;DHT22;6495;51.808;7.478;2022-07-23T04:40:42;16.90;99.90
12853;DHT22;6495;51.808;7.478;2022-07-23T04:43:10;16.90;99.90
12853;DHT22;6495;51.808;7.478;2022-07-23T04:45:40;16.80;99.90
12853;DHT22;6495;51.808;7.478;2022-07-23T04:48:09;16.80;99.90
12853;DHT22;6495;51.808;7.478;2022-07-23T04:50:38;16.80;99.90
12853;DHT22;6495;51.808;7.478;2022-07-23T04:53:06;16.80;99.90
12853;DHT22;6495;51.808;7.478;2022-07-23T04:55:36;16.90;99.90
12853;DHT22;6495;51.808;7.478;2022-07-23T04:58:04;16.90;99.90
12853;DHT22;6495;51.808;7.478;2022-07-23T05:00:32;16.90;99.90
12853;DHT22;6495;51.808;7.478;2022-07-23T05:03:02;16.90;99.90
12853;DHT22;6495;51.808;7.478;2022-07-23T05:05:30;16.90;99.90
12853;DHT22;6495;51.808;7.478;2022-07-23T05:07:58;16.90;99.90
12853;DHT22;6495;51.808;7.478;2022-07-23T05:10:26;16.80;99.90
12853;DHT22;6495;51.808;7.478;2022-07-23T05:12:54;16.90;99.90
12853;DHT22;6495;51.808;7.478;2022-07-23T05:15:22;16.90;99.90
12853;DHT22;6495;51.808;7.478;2022-07-23T05:17:51;16.90;99.90
12853;DHT22;6495;51.808;7.478;2022-07-23T05:20:20;16.90;99.90
12853;DHT22;6495;51.808;7.478;2022-07-23T05:22:48;17.00;99.90
12853;DHT22;6495;51.808;7.478;2022-07-23T05:25:16;17.00;99.90
12853;DHT22;6495;51.808;7.478;2022-07-23T05:27:44;17.00;99.90
12853;DHT22;6495;51.808;7.478;2022-07-23T05:30:12;17.00;99.90
12853;DHT22;6495;51.808;7.478;2022-07-23T05:32:40;17.10;99.90
12853;DHT22;6495;51.808;7.478;2022-07-23T05:35:09;17.10;99.90
12853;DHT22;6495;51.808;7.478;2022-07-23T05:37:38;17.10;99.90
12853;DHT22;6495;51.808;7.478;2022-07-23T05:40:08;17.10;99.90
12853;DHT22;6495;51.808;7.478;2022-07-23T05:42:38;17.10;99.90
12853;DHT22;6495;51.808;7.478;2022-07-23T05:45:08;17.20;99.90
12853;DHT22;6495;51.808;7.478;2022-07-23T05:47:42;17.30;99.90
12853;DHT22;6495;51.808;7.478;2022-07-23T05:50:11;17.30;99.90
12853;DHT22;6495;51.808;7.478;2022-07-23T05:52:42;17.40;99.90
12853;DHT22;6495;51.808;7.478;2022-07-23T05:55:11;17.50;99.90
12853;DHT22;6495;51.808;7.478;2022-07-23T05:57:40;17.50;99.90
12853;DHT22;6495;51.808;7.478;2022-07-23T06:00:09;17.60;99.90
12853;DHT22;6495;51.808;7.478;2022-07-23T06:02:38;17.70;99.90
12853;DHT22;6495;51.808;7.478;2022-07-23T06:05:08;17.80;99.90
12853;DHT22;6495;51.808;7.478;2022-07-23T06:07:36;17.90;99.90
12853;DHT22;6495;51.808;7.478;2022-07-23T06:10:07;18.00;99.90
12853;DHT22;6495;51.808;7.478;2022-07-23T06:12:36;18.10;99.90
12853;DHT22;6495;51.808;7.478;2022-07-23T06:15:05;18.20;99.90
12853;DHT22;6495;51.808;7.478;2022-07-23T06:17:37;18.20;99.90
12853;DHT22;6495;51.808;7.478;2022-07-23T06:20:08;18.30;99.90
12853;DHT22;6495;51.808;7.478;2022-07-23T06:22:37;18.40;99.90
12853;DHT22;6495;51.808;7.478;2022-07-23T06:25:07;18.50;99.90
12853;DHT22;6495;51.808;7.478;2022-07-23T06:27:45;18.60;99.90
12853;DHT22;6495;51.808;7.478;2022-07-23T06:30:14;18.60;99.90
12853;DHT22;6495;51.808;7.478;2022-07-23T06:32:44;18.70;99.90
12853;DHT22;6495;51.808;7.478;2022-07-23T06:35:18;18.70;99.90
12853;DHT22;6495;51.808;7.478;2022-07-23T06:37:48;18.80;99.90
12853;DHT22;6495;51.808;7.478;2022-07-23T06:40:20;18.90;99.90
12853;DHT22;6495;51.808;7.478;2022-07-23T06:42:49;18.90;99.90
12853;DHT22;6495;51.808;7.478;2022-07-23T06:45:17;19.00;99.90
12853;DHT22;6495;51.808;7.478;2022-07-23T06:47:45;19.10;99.90
12853;DHT22;6495;51.808;7.478;2022-07-23T06:50:14;19.10;99.90
12853;DHT22;6495;51.808;7.478;2022-07-23T06:52:48;19.20;99.90
12853;DHT22;6495;51.808;7.478;2022-07-23T06:55:18;19.30;99.90
12853;DHT22;6495;51.808;7.478;2022-07-23T06:57:48;19.40;99.90
12853;DHT22;6495;51.808;7.478;2022-07-23T07:00:16;19.40;99.90
12853;DHT22;6495;51.808;7.478;2022-07-23T07:02:44;19.50;99.90
12853;DHT22;6495;51.808;7.478;2022-07-23T07:05:12;19.60;99.90
12853;DHT22;6495;51.808;7.478;2022-07-23T07:07:42;19.60;99.90
12853;DHT22;6495;51.808;7.478;2022-07-23T07:10:17;19.70;99.90
12853;DHT22;6495;51.808;7.478;2022-07-23T07:12:46;19.70;99.90
12853;DHT22;6495;51.808;7.478;2022-07-23T07:15:14;19.80;99.90
12853;DHT22;6495;51.808;7.478;2022-07-23T07:17:42;19.80;99.90
12853;DHT22;6495;51.808;7.478;2022-07-23T07:20:13;19.90;99.90
12853;DHT22;6495;51.808;7.478;2022-07-23T07:22:49;20.00;99.90
12853;DHT22;6495;51.808;7.478;2022-07-23T07:25:36;20.10;99.90
12853;DHT22;6495;51.808;7.478;2022-07-23T07:28:07;20.20;99.90
12853;DHT22;6495;51.808;7.478;2022-07-23T07:30:37;20.20;99.90
12853;DHT22;6495;51.808;7.478;2022-07-23T07:33:07;20.20;99.90
12853;DHT22;6495;51.808;7.478;2022-07-23T07:35:37;20.20;99.90
12853;DHT22;6495;51.808;7.478;2022-07-23T07:38:05;20.20;99.90
12853;DHT22;6495;51.808;7.478;2022-07-23T07:40:33;20.20;99.90
12853;DHT22;6495;51.808;7.478;2022-07-23T07:43:07;20.20;99.90
12853;DHT22;6495;51.808;7.478;2022-07-23T07:45:36;20.30;99.90
12853;DHT22;6495;51.808;7.478;2022-07-23T07:48:12;20.30;99.90
12853;DHT22;6495;51.808;7.478;2022-07-23T07:50:41;20.20;99.90
12853;DHT22;6495;51.808;7.478;2022-07-23T07:53:11;20.30;99.90
12853;DHT22;6495;51.808;7.478;2022-07-23T07:55:40;20.30;99.90
12853;DHT22;6495;51.808;7.478;2022-07-23T07:58:17;20.40;99.90
12853;DHT22;6495;51.808;7.478;2022-07-23T08:00:45;20.50;99.90
12853;DHT22;6495;51.808;7.478;2022-07-23T08:03:13;20.50;99.90
12853;DHT22;6495;51.808;7.478;2022-07-23T08:05:43;20.60;99.90
12853;DHT22;6495;51.808;7.478;2022-07-23T08:08:13;20.50;99.90
12853;DHT22;6495;51.808;7.478;2022-07-23T08:10:45;20.50;99.90
12853;DHT22;6495;51.808;7.478;2022-07-23T08:13:20;20.40;99.90
12853;DHT22;6495;51.808;7.478;2022-07-23T08:15:48;20.40;99.90
12853;DHT22;6495;51.808;7.478;2022-07-23T08:18:19;20.40;99.90
12853;DHT22;6495;51.808;7.478;2022-07-23T08:20:48;20.50;99.90
12853;DHT22;6495;51.808;7.478;2022-07-23T08:23:16;20.60;99.90
12853;DHT22;6495;51.808;7.478;2022-07-23T08:25:46;20.70;99.90
12853;DHT22;6495;51.808;7.478;2022-07-23T08:28:15;20.80;99.90
12853;DHT22;6495;51.808;7.478;2022-07-23T08:30:46;20.90;99.90
12853;DHT22;6495;51.808;7.478;2022-07-23T08:33:22;20.90;99.90
12853;DHT22;6495;51.808;7.478;2022-07-23T08:36:00;20.90;99.90
12853;DHT22;6495;51.808;7.478;2022-07-23T08:38:30;20.90;99.90
12853;DHT22;6495;51.808;7.478;2022-07-23T08:41:03;20.90;99.90
12853;DHT22;6495;51.808;7.478;2022-07-23T08:43:33;21.00;99.90
12853;DHT22;6495;51.808;7.478;2022-07-23T08:46:05;21.00;99.90
12853;DHT22;6495;51.808;7.478;2022-07-23T08:48:38;21.10;99.90
12853;DHT22;6495;51.808;7.478;2022-07-23T08:51:08;21.20;99.90
12853;DHT22;6495;51.808;7.478;2022-07-23T08:53:39;21.20;99.90
12853;DHT22;6495;51.808;7.478;2022-07-23T08:56:09;21.20;99.90
12853;DHT22;6495;51.808;7.478;2022-07-23T08:58:37;21.30;99.90
12853;DHT22;6495;51.808;7.478;2022-07-23T09:01:06;21.30;99.90
12853;DHT22;6495;51.808;7.478;2022-07-23T09:03:36;21.30;99.90
12853;DHT22;6495;51.808;7.478;2022-07-23T09:06:05;21.30;99.90
12853;DHT22;6495;51.808;7.478;2022-07-23T09:08:35;21.30;99.90
12853;DHT22;6495;51.808;7.478;2022-07-23T09:11:07;21.40;99.90
12853;DHT22;6495;51.808;7.478;2022-07-23T09:13:38;21.40;99.90
12853;DHT22;6495;51.808;7.478;2022-07-23T09:16:12;21.50;99.90
12853;DHT22;6495;51.808;7.478;2022-07-23T09:18:44;21.60;99.90
12853;DHT22;6495;51.808;7.478;2022-07-23T09:21:17;21.60;99.90
12853;DHT22;6495;51.808;7.478;2022-07-23T09:23:49;21.60;99.90
12853;DHT22;6495;51.808;7.478;2022-07-23T09:26:31;21.60;99.90
12853;DHT22;6495;51.808;7.478;2022-07-23T09:29:11;21.70;99.90
12853;DHT22;6495;51.808;7.478;2022-07-23T09:31:50;21.70;99.90
12853;DHT22;6495;51.808;7.478;2022-07-23T09:34:21;21.80;99.90
12853;DHT22;6495;51.808;7.478;2022-07-23T09:37:09;21.90;99.90
12853;DHT22;6495;51.808;7.478;2022-07-23T09:39:41;21.90;99.90
12853;DHT22;6495;51.808;7.478;2022-07-23T09:42:14;22.00;99.90
12853;DHT22;6495;51.808;7.478;2022-07-23T09:44:46;22.00;99.90
12853;DHT22;6495;51.808;7.478;2022-07-23T09:47:17;22.00;99.90
12853;DHT22;6495;51.808;7.478;2022-07-23T09:49:58;22.10;99.90
12853;DHT22;6495;51.808;7.478;2022-07-23T09:52:28;22.10;99.90
12853;DHT22;6495;51.808;7.478;2022-07-23T09:55:11;22.10;99.90
12853;DHT22;6495;51.808;7.478;2022-07-23T09:57:40;22.00;99.90
12853;DHT22;6495;51.808;7.478;2022-07-23T10:00:10;22.10;99.90
12853;DHT22;6495;51.808;7.478;2022-07-23T10:02:40;22.20;99.90
12853;DHT22;6495;51.808;7.478;2022-07-23T10:05:11;22.20;99.90
12853;DHT22;6495;51.808;7.478;2022-07-23T10:07:40;22.30;99.90
12853;DHT22;6495;51.808;7.478;2022-07-23T10:10:09;22.40;99.90
12853;DHT22;6495;51.808;7.478;2022-07-23T10:12:38;22.50;99.90
12853;DHT22;6495;51.808;7.478;2022-07-23T10:15:16;22.50;99.90
12853;DHT22;6495;51.808;7.478;2022-07-23T10:17:46;22.50;99.90
12853;DHT22;6495;51.808;7.478;2022-07-23T10:20:16;22.50;99.90
12853;DHT22;6495;51.808;7.478;2022-07-23T10:22:57;22.60;99.90
12853;DHT22;6495;51.808;7.478;2022-07-23T10:25:34;22.60;99.90
12853;DHT22;6495;51.808;7.478;2022-07-23T10:28:27;22.70;99.90
12853;DHT22;6495;51.808;7.478;2022-07-23T10:31:18;22.80;99.90
12853;DHT22;6495;51.808;7.478;2022-07-23T10:34:24;22.90;99.90
12853;DHT22;6495;51.808;7.478;2022-07-23T10:37:01;23.00;99.90
12853;DHT22;6495;51.808;7.478;2022-07-23T10:39:43;23.10;99.90
12853;DHT22;6495;51.808;7.478;2022-07-23T10:42:12;23.20;99.90
12853;DHT22;6495;51.808;7.478;2022-07-23T10:44:43;23.30;99.90
12853;DHT22;6495;51.808;7.478;2022-07-23T10:47:21;23.40;99.90
12853;DHT22;6495;51.808;7.478;2022-07-23T10:50:25;23.40;99.90
12853;DHT22;6495;51.808;7.478;2022-07-23T10:53:09;23.40;99.90
12853;DHT22;6495;51.808;7.478;2022-07-23T10:55:50;23.40;99.90
12853;DHT22;6495;51.808;7.478;2022-07-23T10:58:47;23.40;99.90
12853;DHT22;6495;51.808;7.478;2022-07-23T11:01:33;23.40;99.90
12853;DHT22;6495;51.808;7.478;2022-07-23T11:04:03;23.50;99.90
12853;DHT22;6495;51.808;7.478;2022-07-23T11:09:43;23.50;99.90
12853;DHT22;6495;51.808;7.478;2022-07-23T11:12:33;23.70;99.90
12853;DHT22;6495;51.808;7.478;2022-07-23T11:15:06;23.60;99.90
12853;DHT22;6495;51.808;7.478;2022-07-23T11:17:37;23.60;99.90
12853;DHT22;6495;51.808;7.478;2022-07-23T11:20:22;23.60;99.90
12853;DHT22;6495;51.808;7.478;2022-07-23T11:22:54;23.60;99.90
12853;DHT22;6495;51.808;7.478;2022-07-23T11:25:35;23.60;99.90
12853;DHT22;6495;51.808;7.478;2022-07-23T11:28:18;23.70;99.90
12853;DHT22;6495;51.808;7.478;2022-07-23T11:30:49;23.80;99.90
12853;DHT22;6495;51.808;7.478;2022-07-23T11:33:19;23.90;99.90
12853;DHT22;6495;51.808;7.478;2022-07-23T11:35:51;23.90;99.90
12853;DHT22;6495;51.808;7.478;2022-07-23T11:38:31;23.90;99.90
12853;DHT22;6495;51.808;7.478;2022-07-23T11:41:00;24.00;99.90
12853;DHT22;6495;51.808;7.478;2022-07-23T11:43:28;24.20;99.90
12853;DHT22;6495;51.808;7.478;2022-07-23T11:45:59;24.20;99.90
12853;DHT22;6495;51.808;7.478;2022-07-23T11:48:31;24.40;99.90
12853;DHT22;6495;51.808;7.478;2022-07-23T11:51:06;24.40;99.90
12853;DHT22;6495;51.808;7.478;2022-07-23T11:53:34;24.40;99.90
12853;DHT22;6495;51.808;7.478;2022-07-23T11:56:04;24.50;99.90
12853;DHT22;6495;51.808;7.478;2022-07-23T11:58:33;24.50;99.90
12853;DHT22;6495;51.808;7.478;2022-07-23T12:01:04;24.50;99.90
12853;DHT22;6495;51.808;7.478;2022-07-23T12:03:32;24.60;99.90
12853;DHT22;6495;51.808;7.478;2022-07-23T12:06:01;24.60;99.90
12853;DHT22;6495;51.808;7.478;2022-07-23T12:08:29;24.70;99.90
12853;DHT22;6495;51.808;7.478;2022-07-23T12:10:57;24.70;99.90
12853;DHT22;6495;51.808;7.478;2022-07-23T12:13:25;24.60;99.70
12853;DHT22;6495;51.808;7.478;2022-07-23T12:15:56;24.50;99.70
12853;DHT22;6495;51.808;7.478;2022-07-23T12:18:27;24.50;99.90
12853;DHT22;6495;51.808;7.478;2022-07-23T12:20:57;24.50;99.80
12853;DHT22;6495;51.808;7.478;2022-07-23T12:23:32;24.50;99.10
12853;DHT22;6495;51.808;7.478;2022-07-23T12:26:02;24.50;99.30
12853;DHT22;6495;51.808;7.478;2022-07-23T12:28:32;24.50;98.70
12853;DHT22;6495;51.808;7.478;2022-07-23T12:31:04;24.50;99.10
12853;DHT22;6495;51.808;7.478;2022-07-23T12:33:37;24.50;99.30
12853;DHT22;6495;51.808;7.478;2022-07-23T12:36:08;24.50;98.70
12853;DHT22;6495;51.808;7.478;2022-07-23T12:38:40;24.50;98.70
12853;DHT22;6495;51.808;7.478;2022-07-23T12:41:10;24.50;98.60
12853;DHT22;6495;51.808;7.478;2022-07-23T12:43:39;24.60;98.70
12853;DHT22;6495;51.808;7.478;2022-07-23T12:46:12;24.70;98.40
12853;DHT22;6495;51.808;7.478;2022-07-23T12:48:52;24.80;98.50
12853;DHT22;6495;51.808;7.478;2022-07-23T12:51:23;24.80;97.30
12853;DHT22;6495;51.808;7.478;2022-07-23T12:53:55;24.80;98.00
12853;DHT22;6495;51.808;7.478;2022-07-23T12:56:28;24.90;97.80
12853;DHT22;6495;51.808;7.478;2022-07-23T12:58:59;25.10;98.00
12853;DHT22;6495;51.808;7.478;2022-07-23T13:01:35;25.20;97.70
12853;DHT22;6495;51.808;7.478;2022-07-23T13:04:12;25.40;97.30
12853;DHT22;6495;51.808;7.478;2022-07-23T13:06:46;25.50;96.60
12853;DHT22;6495;51.808;7.478;2022-07-23T13:09:17;25.50;97.20
12853;DHT22;6495;51.808;7.478;2022-07-23T13:11:48;25.60;97.20
12853;DHT22;6495;51.808;7.478;2022-07-23T13:14:23;25.60;96.90
12853;DHT22;6495;51.808;7.478;2022-07-23T13:16:53;25.70;96.70
12853;DHT22;6495;51.808;7.478;2022-07-23T13:19:26;25.80;96.50
12853;DHT22;6495;51.808;7.478;2022-07-23T13:21:55;25.80;96.20
12853;DHT22;6495;51.808;7.478;2022-07-23T13:24:35;25.90;96.40
12853;DHT22;6495;51.808;7.478;2022-07-23T13:27:05;26.00;96.30
12853;DHT22;6495;51.808;7.478;2022-07-23T13:29:37;26.10;96.10
12853;DHT22;6495;51.808;7.478;2022-07-23T13:32:05;26.10;95.30
12853;DHT22;6495;51.808;7.478;2022-07-23T13:34:40;26.20;95.40
12853;DHT22;6495;51.808;7.478;2022-07-23T13:37:09;26.20;95.50
12853;DHT22;6495;51.808;7.478;2022-07-23T13:39:39;26.30;95.50
12853;DHT22;6495;51.808;7.478;2022-07-23T13:42:08;26.40;95.30
12853;DHT22;6495;51.808;7.478;2022-07-23T13:44:44;26.50;94.70
12853;DHT22;6495;51.808;7.478;2022-07-23T13:47:14;26.50;94.30
12853;DHT22;6495;51.808;7.478;2022-07-23T13:49:45;26.50;94.00
12853;DHT22;6495;51.808;7.478;2022-07-23T13:52:14;26.60;94.40
12853;DHT22;6495;51.808;7.478;2022-07-23T13:54:42;26.60;94.10
12853;DHT22;6495;51.808;7.478;2022-07-23T13:57:11;26.50;93.50
12853;DHT22;6495;51.808;7.478;2022-07-23T13:59:41;26.40;93.20
12853;DHT22;6495;51.808;7.478;2022-07-23T14:02:10;26.40;93.20
12853;DHT22;6495;51.808;7.478;2022-07-23T14:04:52;26.40;92.90
12853;DHT22;6495;51.808;7.478;2022-07-23T14:07:21;26.30;92.60
12853;DHT22;6495;51.808;7.478;2022-07-23T14:09:49;26.30;92.90
12853;DHT22;6495;51.808;7.478;2022-07-23T14:12:18;26.30;92.70
12853;DHT22;6495;51.808;7.478;2022-07-23T14:14:49;26.30;92.80
12853;DHT22;6495;51.808;7.478;2022-07-23T14:17:20;26.40;92.90
12853;DHT22;6495;51.808;7.478;2022-07-23T14:24:07;26.50;91.60
12853;DHT22;6495;51.808;7.478;2022-07-23T14:26:36;26.60;92.60
12853;DHT22;6495;51.808;7.478;2022-07-23T14:29:04;26.60;92.50
12853;DHT22;6495;51.808;7.478;2022-07-23T14:31:34;26.70;92.30
12853;DHT22;6495;51.808;7.478;2022-07-23T14:34:02;26.80;92.20
12853;DHT22;6495;51.808;7.478;2022-07-23T14:36:33;26.80;91.70
12853;DHT22;6495;51.808;7.478;2022-07-23T14:39:01;26.80;91.60
12853;DHT22;6495;51.808;7.478;2022-07-23T14:41:32;26.80;91.50
12853;DHT22;6495;51.808;7.478;2022-07-23T14:44:00;26.80;91.10
12853;DHT22;6495;51.808;7.478;2022-07-23T14:46:29;26.70;90.90
12853;DHT22;6495;51.808;7.478;2022-07-23T14:48:57;26.70;90.90
12853;DHT22;6495;51.808;7.478;2022-07-23T14:51:26;26.70;91.00
12853;DHT22;6495;51.808;7.478;2022-07-23T14:53:54;26.70;91.00
12853;DHT22;6495;51.808;7.478;2022-07-23T14:56:22;26.70;90.40
12853;DHT22;6495;51.808;7.478;2022-07-23T15:15:46;27.10;89.60
12853;DHT22;6495;51.808;7.478;2022-07-23T15:18:20;27.00;88.80
12853;DHT22;6495;51.808;7.478;2022-07-23T15:20:48;27.00;88.60
12853;DHT22;6495;51.808;7.478;2022-07-23T15:23:18;27.00;88.70
12853;DHT22;6495;51.808;7.478;2022-07-23T15:25:48;27.10;88.40
12853;DHT22;6495;51.808;7.478;2022-07-23T15:28:18;27.20;89.30
12853;DHT22;6495;51.808;7.478;2022-07-23T15:30:54;27.30;87.90
12853;DHT22;6495;51.808;7.478;2022-07-23T15:33:26;27.30;87.00
12853;DHT22;6495;51.808;7.478;2022-07-23T15:39:58;27.40;86.00
12853;DHT22;6495;51.808;7.478;2022-07-23T15:42:50;27.40;86.70
12853;DHT22;6495;51.808;7.478;2022-07-23T15:45:37;27.40;84.40
12853;DHT22;6495;51.808;7.478;2022-07-23T15:48:08;27.40;85.90
12853;DHT22;6495;51.808;7.478;2022-07-23T15:50:36;27.40;85.30
12853;DHT22;6495;51.808;7.478;2022-07-23T15:53:11;27.40;85.20
12853;DHT22;6495;51.808;7.478;2022-07-23T15:55:44;27.50;85.10
12853;DHT22;6495;51.808;7.478;2022-07-23T15:58:16;27.50;84.70
12853;DHT22;6495;51.808;7.478;2022-07-23T16:00:50;27.40;83.50
12853;DHT22;6495;51.808;7.478;2022-07-23T16:03:20;27.30;83.10
12853;DHT22;6495;51.808;7.478;2022-07-23T16:05:48;27.30;83.20
12853;DHT22;6495;51.808;7.478;2022-07-23T16:08:17;27.20;82.90
12853;DHT22;6495;51.808;7.478;2022-07-23T16:10:45;27.20;82.70
12853;DHT22;6495;51.808;7.478;2022-07-23T16:13:14;27.30;83.10
12853;DHT22;6495;51.808;7.478;2022-07-23T16:15:42;27.30;83.10
12853;DHT22;6495;51.808;7.478;2022-07-23T16:18:10;27.40;82.80
12853;DHT22;6495;51.808;7.478;2022-07-23T16:20:40;27.30;82.40
12853;DHT22;6495;51.808;7.478;2022-07-23T16:23:08;27.30;82.00
12853;DHT22;6495;51.808;7.478;2022-07-23T16:25:39;27.20;81.80
12853;DHT22;6495;51.808;7.478;2022-07-23T16:28:17;27.20;81.90
12853;DHT22;6495;51.808;7.478;2022-07-23T16:30:46;27.10;80.80
12853;DHT22;6495;51.808;7.478;2022-07-23T16:33:25;27.10;81.20
12853;DHT22;6495;51.808;7.478;2022-07-23T16:36:34;27.10;82.00
12853;DHT22;6495;51.808;7.478;2022-07-23T16:39:40;27.00;81.20